sensor_id;sensor_type;location;lat;lon;timestamp;P1;durP1;ratioP1;P2;durP2;ratioP2
9098;SDS011;4585;51.414;6.776;2022-08-19T00:00:14;8.70;;;4.77;;
9098;SDS011;4585;51.414;6.776;2022-08-19T00:02:41;7.23;;;4.90;;
9098;SDS011;4585;51.414;6.776;2022-08-19T00:05:07;8.40;;;4.50;;
9098;SDS011;4585;51.414;6.776;2022-08-19T00:07:34;6.30;;;4.40;;
9098;SDS011;4585;51.414;6.776;2022-08-19T00:10:00;5.87;;;4.43;;
9098;SDS011;4585;51.414;6.776;2022-08-19T00:12:27;5.47;;;4.40;;
9098;SDS011;4585;51.414;6.776;2022-08-19T00:14:52;7.60;;;4.97;;
9098;SDS011;4585;51.414;6.776;2022-08-19T00:17:19;8.37;;;4.73;;
9098;SDS011;4585;51.414;6.776;2022-08-19T00:19:45;6.40;;;4.20;;
9098;SDS011;4585;51.414;6.776;2022-08-19T00:22:12;5.47;;;4.50;;
9098;SDS011;4585;51.414;6.776;2022-08-19T00:24:40;5.67;;;4.47;;
9098;SDS011;4585;51.414;6.776;2022-08-19T00:27:08;7.77;;;4.47;;
9098;SDS011;4585;51.414;6.776;2022-08-19T00:29:37;6.33;;;4.70;;
9098;SDS011;4585;51.414;6.776;2022-08-19T00:32:04;4.97;;;4.40;;
9098;SDS011;4585;51.414;6.776;2022-08-19T00:34:30;7.03;;;4.93;;
9098;SDS011;4585;51.414;6.776;2022-08-19T00:36:56;6.13;;;4.53;;
9098;SDS011;4585;51.414;6.776;2022-08-19T00:39:23;6.90;;;4.67;;
9098;SDS011;4585;51.414;6.776;2022-08-19T00:41:49;7.70;;;4.90;;
9098;SDS011;4585;51.414;6.776;2022-08-19T00:44:20;7.27;;;4.90;;
9098;SDS011;4585;51.414;6.776;2022-08-19T00:46:51;6.00;;;4.30;;
9098;SDS011;4585;51.414;6.776;2022-08-19T00:49:20;5.47;;;4.47;;
9098;SDS011;4585;51.414;6.776;2022-08-19T00:51:53;5.77;;;4.67;;
9098;SDS011;4585;51.414;6.776;2022-08-19T00:54:24;5.10;;;4.60;;
9098;SDS011;4585;51.414;6.776;2022-08-19T00:56:51;6.90;;;4.80;;
9098;SDS011;4585;51.414;6.776;2022-08-19T00:59:17;5.83;;;4.50;;
9098;SDS011;4585;51.414;6.776;2022-08-19T01:01:45;7.17;;;5.13;;
9098;SDS011;4585;51.414;6.776;2022-08-19T01:04:12;6.27;;;5.00;;
9098;SDS011;4585;51.414;6.776;2022-08-19T01:06:38;6.07;;;4.50;;
9098;SDS011;4585;51.414;6.776;2022-08-19T01:09:06;6.50;;;4.40;;
9098;SDS011;4585;51.414;6.776;2022-08-19T01:11:37;4.63;;;4.13;;
9098;SDS011;4585;51.414;6.776;2022-08-19T01:14:11;5.60;;;4.43;;
9098;SDS011;4585;51.414;6.776;2022-08-19T01:16:38;5.73;;;4.30;;
9098;SDS011;4585;51.414;6.776;2022-08-19T01:19:23;5.27;;;4.20;;
9098;SDS011;4585;51.414;6.776;2022-08-19T01:21:58;8.03;;;4.87;;
9098;SDS011;4585;51.414;6.776;2022-08-19T01:24:28;6.57;;;4.80;;
9098;SDS011;4585;51.414;6.776;2022-08-19T01:26:55;6.47;;;4.33;;
9098;SDS011;4585;51.414;6.776;2022-08-19T01:29:21;5.27;;;4.47;;
9098;SDS011;4585;51.414;6.776;2022-08-19T01:31:47;5.07;;;4.47;;
9098;SDS011;4585;51.414;6.776;2022-08-19T01:34:14;4.87;;;4.30;;
9098;SDS011;4585;51.414;6.776;2022-08-19T01:36:42;5.27;;;4.60;;
9098;SDS011;4585;51.414;6.776;2022-08-19T01:39:12;10.00;;;4.80;;
9098;SDS011;4585;51.414;6.776;2022-08-19T01:41:40;5.30;;;4.60;;
9098;SDS011;4585;51.414;6.776;2022-08-19T01:44:07;5.20;;;4.37;;
9098;SDS011;4585;51.414;6.776;2022-08-19T01:46:35;5.33;;;4.00;;
9098;SDS011;4585;51.414;6.776;2022-08-19T01:49:02;6.07;;;4.63;;
9098;SDS011;4585;51.414;6.776;2022-08-19T01:51:30;6.57;;;5.03;;
9098;SDS011;4585;51.414;6.776;2022-08-19T01:53:57;5.43;;;4.30;;
9098;SDS011;4585;51.414;6.776;2022-08-19T01:56:23;6.63;;;4.43;;
9098;SDS011;4585;51.414;6.776;2022-08-19T01:58:51;5.17;;;4.30;;
9098;SDS011;4585;51.414;6.776;2022-08-19T02:01:21;4.70;;;4.20;;
9098;SDS011;4585;51.414;6.776;2022-08-19T02:03:50;5.90;;;4.83;;
9098;SDS011;4585;51.414;6.776;2022-08-19T02:06:18;5.10;;;4.50;;
9098;SDS011;4585;51.414;6.776;2022-08-19T02:08:44;7.50;;;4.33;;
9098;SDS011;4585;51.414;6.776;2022-08-19T02:11:17;5.60;;;4.37;;
9098;SDS011;4585;51.414;6.776;2022-08-19T02:13:45;6.40;;;4.30;;
9098;SDS011;4585;51.414;6.776;2022-08-19T02:16:12;6.73;;;4.73;;
9098;SDS011;4585;51.414;6.776;2022-08-19T02:18:38;6.20;;;4.60;;
9098;SDS011;4585;51.414;6.776;2022-08-19T02:21:04;6.43;;;4.90;;
9098;SDS011;4585;51.414;6.776;2022-08-19T02:23:32;4.83;;;4.33;;
9098;SDS011;4585;51.414;6.776;2022-08-19T02:25:58;5.47;;;4.43;;
9098;SDS011;4585;51.414;6.776;2022-08-19T02:28:24;6.80;;;4.20;;
9098;SDS011;4585;51.414;6.776;2022-08-19T02:30:50;5.20;;;4.30;;
9098;SDS011;4585;51.414;6.776;2022-08-19T02:33:16;7.03;;;4.63;;
9098;SDS011;4585;51.414;6.776;2022-08-19T02:35:43;6.00;;;4.40;;
9098;SDS011;4585;51.414;6.776;2022-08-19T02:38:10;4.57;;;4.13;;
9098;SDS011;4585;51.414;6.776;2022-08-19T02:40:53;7.00;;;4.37;;
9098;SDS011;4585;51.414;6.776;2022-08-19T02:43:26;4.87;;;4.03;;
9098;SDS011;4585;51.414;6.776;2022-08-19T02:45:53;6.37;;;4.53;;
9098;SDS011;4585;51.414;6.776;2022-08-19T02:48:20;5.83;;;4.33;;
9098;SDS011;4585;51.414;6.776;2022-08-19T02:50:48;4.97;;;4.27;;
9098;SDS011;4585;51.414;6.776;2022-08-19T02:53:20;5.43;;;4.63;;
9098;SDS011;4585;51.414;6.776;2022-08-19T02:55:47;5.97;;;4.73;;
9098;SDS011;4585;51.414;6.776;2022-08-19T02:58:14;4.80;;;4.33;;
9098;SDS011;4585;51.414;6.776;2022-08-19T03:00:41;5.60;;;4.00;;
9098;SDS011;4585;51.414;6.776;2022-08-19T03:03:09;7.47;;;4.57;;
9098;SDS011;4585;51.414;6.776;2022-08-19T03:05:35;5.30;;;4.30;;
9098;SDS011;4585;51.414;6.776;2022-08-19T03:08:02;5.73;;;4.70;;
9098;SDS011;4585;51.414;6.776;2022-08-19T03:10:30;5.10;;;4.60;;
9098;SDS011;4585;51.414;6.776;2022-08-19T03:12:57;4.90;;;4.20;;
9098;SDS011;4585;51.414;6.776;2022-08-19T03:15:23;4.80;;;4.30;;
9098;SDS011;4585;51.414;6.776;2022-08-19T03:17:49;7.80;;;4.60;;
9098;SDS011;4585;51.414;6.776;2022-08-19T03:20:15;5.23;;;4.27;;
9098;SDS011;4585;51.414;6.776;2022-08-19T03:22:43;8.07;;;4.93;;
9098;SDS011;4585;51.414;6.776;2022-08-19T03:25:09;6.40;;;4.90;;
9098;SDS011;4585;51.414;6.776;2022-08-19T03:27:37;7.33;;;4.77;;
9098;SDS011;4585;51.414;6.776;2022-08-19T03:30:02;5.10;;;4.57;;
9098;SDS011;4585;51.414;6.776;2022-08-19T03:32:29;5.53;;;4.50;;
9098;SDS011;4585;51.414;6.776;2022-08-19T03:34:55;5.07;;;4.57;;
9098;SDS011;4585;51.414;6.776;2022-08-19T03:37:21;6.83;;;5.20;;
9098;SDS011;4585;51.414;6.776;2022-08-19T03:39:47;8.77;;;5.37;;
9098;SDS011;4585;51.414;6.776;2022-08-19T03:42:13;6.30;;;4.97;;
9098;SDS011;4585;51.414;6.776;2022-08-19T03:44:42;6.27;;;5.13;;
9098;SDS011;4585;51.414;6.776;2022-08-19T03:47:09;7.97;;;5.47;;
9098;SDS011;4585;51.414;6.776;2022-08-19T03:49:40;6.13;;;5.03;;
9098;SDS011;4585;51.414;6.776;2022-08-19T03:52:06;7.13;;;4.97;;
9098;SDS011;4585;51.414;6.776;2022-08-19T03:54:35;7.03;;;4.97;;
9098;SDS011;4585;51.414;6.776;2022-08-19T03:57:03;7.77;;;5.10;;
9098;SDS011;4585;51.414;6.776;2022-08-19T03:59:31;6.07;;;4.47;;
9098;SDS011;4585;51.414;6.776;2022-08-19T04:01:59;7.07;;;4.63;;
9098;SDS011;4585;51.414;6.776;2022-08-19T04:04:27;6.13;;;4.70;;
9098;SDS011;4585;51.414;6.776;2022-08-19T04:06:54;7.77;;;4.87;;
9098;SDS011;4585;51.414;6.776;2022-08-19T04:09:21;7.40;;;4.60;;
9098;SDS011;4585;51.414;6.776;2022-08-19T04:11:51;6.87;;;4.87;;
9098;SDS011;4585;51.414;6.776;2022-08-19T04:14:20;6.20;;;4.53;;
9098;SDS011;4585;51.414;6.776;2022-08-19T04:16:49;6.50;;;4.47;;
9098;SDS011;4585;51.414;6.776;2022-08-19T04:19:17;5.77;;;4.83;;
9098;SDS011;4585;51.414;6.776;2022-08-19T04:21:44;5.23;;;4.70;;
9098;SDS011;4585;51.414;6.776;2022-08-19T04:24:15;5.63;;;5.03;;
9098;SDS011;4585;51.414;6.776;2022-08-19T04:26:42;6.53;;;5.07;;
9098;SDS011;4585;51.414;6.776;2022-08-19T04:29:12;5.50;;;4.63;;
9098;SDS011;4585;51.414;6.776;2022-08-19T04:31:40;5.93;;;4.77;;
9098;SDS011;4585;51.414;6.776;2022-08-19T04:34:10;6.60;;;4.73;;
9098;SDS011;4585;51.414;6.776;2022-08-19T04:36:39;6.37;;;5.40;;
9098;SDS011;4585;51.414;6.776;2022-08-19T04:39:07;6.60;;;4.87;;
9098;SDS011;4585;51.414;6.776;2022-08-19T04:41:37;6.27;;;4.93;;
9098;SDS011;4585;51.414;6.776;2022-08-19T04:44:24;6.83;;;5.67;;
9098;SDS011;4585;51.414;6.776;2022-08-19T04:46:51;5.90;;;5.07;;
9098;SDS011;4585;51.414;6.776;2022-08-19T04:49:19;5.23;;;4.53;;
9098;SDS011;4585;51.414;6.776;2022-08-19T04:51:47;7.10;;;5.63;;
9098;SDS011;4585;51.414;6.776;2022-08-19T04:54:14;7.13;;;5.47;;
9098;SDS011;4585;51.414;6.776;2022-08-19T04:56:41;7.30;;;5.77;;
9098;SDS011;4585;51.414;6.776;2022-08-19T04:59:08;6.17;;;4.97;;
9098;SDS011;4585;51.414;6.776;2022-08-19T05:01:35;6.83;;;4.90;;
9098;SDS011;4585;51.414;6.776;2022-08-19T05:04:04;8.50;;;5.80;;
9098;SDS011;4585;51.414;6.776;2022-08-19T05:06:35;6.37;;;5.57;;
9098;SDS011;4585;51.414;6.776;2022-08-19T05:09:04;8.57;;;5.53;;
9098;SDS011;4585;51.414;6.776;2022-08-19T05:11:34;7.60;;;5.70;;
9098;SDS011;4585;51.414;6.776;2022-08-19T05:14:03;10.50;;;6.40;;
9098;SDS011;4585;51.414;6.776;2022-08-19T05:16:30;9.83;;;6.00;;
9098;SDS011;4585;51.414;6.776;2022-08-19T05:18:56;10.63;;;5.47;;
9098;SDS011;4585;51.414;6.776;2022-08-19T05:21:41;9.57;;;6.53;;
9098;SDS011;4585;51.414;6.776;2022-08-19T05:24:26;9.70;;;6.63;;
9098;SDS011;4585;51.414;6.776;2022-08-19T05:26:54;8.60;;;6.77;;
9098;SDS011;4585;51.414;6.776;2022-08-19T05:29:21;8.73;;;6.73;;
9098;SDS011;4585;51.414;6.776;2022-08-19T05:31:49;15.23;;;7.40;;
9098;SDS011;4585;51.414;6.776;2022-08-19T05:34:17;10.53;;;7.43;;
9098;SDS011;4585;51.414;6.776;2022-08-19T05:36:47;11.70;;;8.57;;
9098;SDS011;4585;51.414;6.776;2022-08-19T05:39:15;13.27;;;9.53;;
9098;SDS011;4585;51.414;6.776;2022-08-19T05:41:48;11.33;;;8.30;;
9098;SDS011;4585;51.414;6.776;2022-08-19T05:44:18;14.10;;;9.07;;
9098;SDS011;4585;51.414;6.776;2022-08-19T05:46:46;11.63;;;8.50;;
9098;SDS011;4585;51.414;6.776;2022-08-19T05:49:18;11.70;;;9.20;;
9098;SDS011;4585;51.414;6.776;2022-08-19T05:51:48;12.10;;;8.97;;
9098;SDS011;4585;51.414;6.776;2022-08-19T05:54:15;16.97;;;9.67;;
9098;SDS011;4585;51.414;6.776;2022-08-19T05:56:42;20.00;;;9.97;;
9098;SDS011;4585;51.414;6.776;2022-08-19T05:59:09;13.80;;;10.30;;
9098;SDS011;4585;51.414;6.776;2022-08-19T06:01:40;16.30;;;10.83;;
9098;SDS011;4585;51.414;6.776;2022-08-19T06:04:12;19.33;;;11.80;;
9098;SDS011;4585;51.414;6.776;2022-08-19T06:06:38;24.23;;;14.27;;
9098;SDS011;4585;51.414;6.776;2022-08-19T06:09:05;21.00;;;14.20;;
9098;SDS011;4585;51.414;6.776;2022-08-19T06:11:37;22.07;;;14.57;;
9098;SDS011;4585;51.414;6.776;2022-08-19T06:14:06;25.40;;;16.07;;
9098;SDS011;4585;51.414;6.776;2022-08-19T06:16:36;21.03;;;14.13;;
9098;SDS011;4585;51.414;6.776;2022-08-19T06:19:06;23.97;;;15.80;;
9098;SDS011;4585;51.414;6.776;2022-08-19T06:21:40;28.70;;;17.77;;
9098;SDS011;4585;51.414;6.776;2022-08-19T06:24:10;35.63;;;19.03;;
9098;SDS011;4585;51.414;6.776;2022-08-19T06:26:39;38.47;;;19.73;;
9098;SDS011;4585;51.414;6.776;2022-08-19T06:29:08;35.20;;;19.37;;
9098;SDS011;4585;51.414;6.776;2022-08-19T06:31:36;30.37;;;19.47;;
9098;SDS011;4585;51.414;6.776;2022-08-19T06:34:04;41.27;;;21.93;;
9098;SDS011;4585;51.414;6.776;2022-08-19T06:36:50;39.90;;;23.53;;
9098;SDS011;4585;51.414;6.776;2022-08-19T06:39:21;40.20;;;22.97;;
9098;SDS011;4585;51.414;6.776;2022-08-19T06:41:51;38.97;;;23.23;;
9098;SDS011;4585;51.414;6.776;2022-08-19T06:44:20;39.67;;;25.53;;
9098;SDS011;4585;51.414;6.776;2022-08-19T06:46:48;41.47;;;24.40;;
9098;SDS011;4585;51.414;6.776;2022-08-19T06:49:16;50.03;;;29.20;;
9098;SDS011;4585;51.414;6.776;2022-08-19T06:51:46;48.70;;;27.87;;
9098;SDS011;4585;51.414;6.776;2022-08-19T06:54:13;45.47;;;25.73;;
9098;SDS011;4585;51.414;6.776;2022-08-19T06:56:40;43.77;;;26.27;;
9098;SDS011;4585;51.414;6.776;2022-08-19T06:59:07;40.00;;;25.33;;
9098;SDS011;4585;51.414;6.776;2022-08-19T07:01:36;39.57;;;25.13;;
9098;SDS011;4585;51.414;6.776;2022-08-19T07:04:03;41.67;;;26.73;;
9098;SDS011;4585;51.414;6.776;2022-08-19T07:06:30;46.97;;;27.87;;
9098;SDS011;4585;51.414;6.776;2022-08-19T07:08:56;43.03;;;27.33;;
9098;SDS011;4585;51.414;6.776;2022-08-19T07:11:23;40.73;;;25.53;;
9098;SDS011;4585;51.414;6.776;2022-08-19T07:13:49;38.50;;;24.13;;
9098;SDS011;4585;51.414;6.776;2022-08-19T07:16:19;34.57;;;22.30;;
9098;SDS011;4585;51.414;6.776;2022-08-19T07:18:46;36.70;;;24.03;;
9098;SDS011;4585;51.414;6.776;2022-08-19T07:21:16;40.50;;;23.63;;
9098;SDS011;4585;51.414;6.776;2022-08-19T07:23:47;39.07;;;22.13;;
9098;SDS011;4585;51.414;6.776;2022-08-19T07:26:18;34.83;;;21.47;;
9098;SDS011;4585;51.414;6.776;2022-08-19T07:28:47;30.53;;;20.83;;
9098;SDS011;4585;51.414;6.776;2022-08-19T07:31:14;32.37;;;20.87;;
9098;SDS011;4585;51.414;6.776;2022-08-19T07:33:49;36.07;;;20.20;;
9098;SDS011;4585;51.414;6.776;2022-08-19T07:36:17;28.53;;;19.23;;
9098;SDS011;4585;51.414;6.776;2022-08-19T07:38:46;30.23;;;18.97;;
9098;SDS011;4585;51.414;6.776;2022-08-19T07:41:14;28.77;;;17.67;;
9098;SDS011;4585;51.414;6.776;2022-08-19T07:43:42;25.23;;;16.80;;
9098;SDS011;4585;51.414;6.776;2022-08-19T07:46:09;26.67;;;17.33;;
9098;SDS011;4585;51.414;6.776;2022-08-19T07:48:36;23.65;;;15.40;;
9098;SDS011;4585;51.414;6.776;2022-08-19T07:51:03;24.07;;;16.33;;
9098;SDS011;4585;51.414;6.776;2022-08-19T07:53:33;23.58;;;14.82;;
9098;SDS011;4585;51.414;6.776;2022-08-19T07:56:01;23.98;;;14.95;;
9098;SDS011;4585;51.414;6.776;2022-08-19T07:58:31;19.75;;;13.57;;
9098;SDS011;4585;51.414;6.776;2022-08-19T08:01:04;25.80;;;15.27;;
9098;SDS011;4585;51.414;6.776;2022-08-19T08:03:35;19.20;;;13.63;;
9098;SDS011;4585;51.414;6.776;2022-08-19T08:06:21;22.60;;;13.77;;
9098;SDS011;4585;51.414;6.776;2022-08-19T08:09:11;21.30;;;13.15;;
9098;SDS011;4585;51.414;6.776;2022-08-19T08:11:49;21.45;;;12.75;;
9098;SDS011;4585;51.414;6.776;2022-08-19T08:14:23;21.05;;;12.95;;
9098;SDS011;4585;51.414;6.776;2022-08-19T08:17:00;17.48;;;11.52;;
9098;SDS011;4585;51.414;6.776;2022-08-19T08:19:30;15.18;;;10.95;;
9098;SDS011;4585;51.414;6.776;2022-08-19T08:21:59;18.30;;;10.93;;
9098;SDS011;4585;51.414;6.776;2022-08-19T08:24:27;17.58;;;10.65;;
9098;SDS011;4585;51.414;6.776;2022-08-19T08:26:58;15.20;;;9.38;;
9098;SDS011;4585;51.414;6.776;2022-08-19T08:29:26;15.38;;;9.57;;
9098;SDS011;4585;51.414;6.776;2022-08-19T08:31:53;16.48;;;10.70;;
9098;SDS011;4585;51.414;6.776;2022-08-19T08:34:21;21.05;;;11.50;;
9098;SDS011;4585;51.414;6.776;2022-08-19T08:36:50;14.70;;;9.35;;
9098;SDS011;4585;51.414;6.776;2022-08-19T08:39:18;15.18;;;10.32;;
9098;SDS011;4585;51.414;6.776;2022-08-19T08:47:12;16.80;;;10.18;;
9098;SDS011;4585;51.414;6.776;2022-08-19T08:49:54;15.73;;;9.73;;
9098;SDS011;4585;51.414;6.776;2022-08-19T08:52:34;13.65;;;9.05;;
9098;SDS011;4585;51.414;6.776;2022-08-19T08:55:11;20.63;;;10.43;;
9098;SDS011;4585;51.414;6.776;2022-08-19T09:00:31;20.38;;;11.93;;
9098;SDS011;4585;51.414;6.776;2022-08-19T09:03:03;20.65;;;12.35;;
9098;SDS011;4585;51.414;6.776;2022-08-19T09:14:34;17.30;;;10.85;;
9098;SDS011;4585;51.414;6.776;2022-08-19T09:17:02;17.95;;;11.10;;
9098;SDS011;4585;51.414;6.776;2022-08-19T09:19:28;18.08;;;12.15;;
9098;SDS011;4585;51.414;6.776;2022-08-19T09:21:58;20.08;;;11.18;;
9098;SDS011;4585;51.414;6.776;2022-08-19T09:24:25;24.45;;;12.63;;
9098;SDS011;4585;51.414;6.776;2022-08-19T09:26:52;20.42;;;11.45;;
9098;SDS011;4585;51.414;6.776;2022-08-19T09:29:20;16.17;;;11.02;;
9098;SDS011;4585;51.414;6.776;2022-08-19T09:31:47;15.90;;;11.10;;
9098;SDS011;4585;51.414;6.776;2022-08-19T09:34:13;16.20;;;11.35;;
9098;SDS011;4585;51.414;6.776;2022-08-19T09:36:41;16.17;;;11.68;;
9098;SDS011;4585;51.414;6.776;2022-08-19T09:39:11;17.90;;;11.13;;
9098;SDS011;4585;51.414;6.776;2022-08-19T09:41:39;23.40;;;13.55;;
9098;SDS011;4585;51.414;6.776;2022-08-19T09:44:05;19.67;;;11.40;;
9098;SDS011;4585;51.414;6.776;2022-08-19T09:46:34;19.15;;;11.73;;
9098;SDS011;4585;51.414;6.776;2022-08-19T09:49:02;18.33;;;11.93;;
9098;SDS011;4585;51.414;6.776;2022-08-19T09:51:31;20.08;;;12.63;;
9098;SDS011;4585;51.414;6.776;2022-08-19T09:54:02;18.92;;;12.73;;
9098;SDS011;4585;51.414;6.776;2022-08-19T09:56:29;19.23;;;11.25;;
9098;SDS011;4585;51.414;6.776;2022-08-19T09:58:57;16.75;;;11.77;;
9098;SDS011;4585;51.414;6.776;2022-08-19T10:01:25;17.90;;;12.23;;
9098;SDS011;4585;51.414;6.776;2022-08-19T10:03:58;20.65;;;14.13;;
9098;SDS011;4585;51.414;6.776;2022-08-19T10:06:28;24.13;;;14.93;;
9098;SDS011;4585;51.414;6.776;2022-08-19T10:09:00;21.17;;;13.63;;
9098;SDS011;4585;51.414;6.776;2022-08-19T10:11:32;18.77;;;12.30;;
9098;SDS011;4585;51.414;6.776;2022-08-19T10:14:02;19.67;;;11.77;;
9098;SDS011;4585;51.414;6.776;2022-08-19T10:16:32;23.63;;;13.05;;
9098;SDS011;4585;51.414;6.776;2022-08-19T10:18:59;21.13;;;12.88;;
9098;SDS011;4585;51.414;6.776;2022-08-19T10:21:28;20.60;;;11.98;;
9098;SDS011;4585;51.414;6.776;2022-08-19T10:23:58;17.60;;;10.63;;
9098;SDS011;4585;51.414;6.776;2022-08-19T10:26:26;17.73;;;10.63;;
9098;SDS011;4585;51.414;6.776;2022-08-19T10:28:56;16.92;;;11.23;;
9098;SDS011;4585;51.414;6.776;2022-08-19T10:31:26;20.25;;;11.85;;
9098;SDS011;4585;51.414;6.776;2022-08-19T10:33:54;22.40;;;9.77;;
9098;SDS011;4585;51.414;6.776;2022-08-19T10:36:25;16.80;;;9.90;;
9098;SDS011;4585;51.414;6.776;2022-08-19T10:38:57;14.77;;;9.18;;
9098;SDS011;4585;51.414;6.776;2022-08-19T10:41:25;16.63;;;10.60;;
9098;SDS011;4585;51.414;6.776;2022-08-19T10:43:56;17.45;;;11.93;;
9098;SDS011;4585;51.414;6.776;2022-08-19T10:46:24;15.15;;;9.52;;
9098;SDS011;4585;51.414;6.776;2022-08-19T10:48:52;12.57;;;8.95;;
9098;SDS011;4585;51.414;6.776;2022-08-19T10:51:22;14.00;;;8.88;;
9098;SDS011;4585;51.414;6.776;2022-08-19T10:54:06;17.73;;;9.00;;
9098;SDS011;4585;51.414;6.776;2022-08-19T10:56:35;13.50;;;10.18;;
9098;SDS011;4585;51.414;6.776;2022-08-19T10:59:21;13.10;;;8.25;;
9098;SDS011;4585;51.414;6.776;2022-08-19T11:01:54;13.23;;;7.97;;
9098;SDS011;4585;51.414;6.776;2022-08-19T11:04:24;11.13;;;8.13;;
9098;SDS011;4585;51.414;6.776;2022-08-19T11:06:54;10.80;;;7.50;;
9098;SDS011;4585;51.414;6.776;2022-08-19T11:09:21;10.48;;;7.63;;
9098;SDS011;4585;51.414;6.776;2022-08-19T11:11:50;10.93;;;7.68;;
9098;SDS011;4585;51.414;6.776;2022-08-19T11:14:18;10.35;;;6.70;;
9098;SDS011;4585;51.414;6.776;2022-08-19T11:16:45;8.40;;;6.10;;
9098;SDS011;4585;51.414;6.776;2022-08-19T11:19:15;10.30;;;7.82;;
9098;SDS011;4585;51.414;6.776;2022-08-19T11:21:45;11.77;;;7.03;;
9098;SDS011;4585;51.414;6.776;2022-08-19T11:24:17;9.25;;;6.70;;
9098;SDS011;4585;51.414;6.776;2022-08-19T11:26:48;8.70;;;5.90;;
9098;SDS011;4585;51.414;6.776;2022-08-19T11:29:17;9.55;;;6.10;;
9098;SDS011;4585;51.414;6.776;2022-08-19T11:31:45;10.32;;;6.22;;
9098;SDS011;4585;51.414;6.776;2022-08-19T11:34:17;9.63;;;5.65;;
9098;SDS011;4585;51.414;6.776;2022-08-19T11:36:46;7.65;;;5.00;;
9098;SDS011;4585;51.414;6.776;2022-08-19T11:39:14;8.57;;;5.28;;
9098;SDS011;4585;51.414;6.776;2022-08-19T11:41:41;7.35;;;4.57;;
9098;SDS011;4585;51.414;6.776;2022-08-19T11:44:07;8.15;;;4.93;;
9098;SDS011;4585;51.414;6.776;2022-08-19T11:46:36;9.35;;;5.68;;
9098;SDS011;4585;51.414;6.776;2022-08-19T11:49:04;6.82;;;5.30;;
9098;SDS011;4585;51.414;6.776;2022-08-19T11:51:32;8.70;;;4.97;;
9098;SDS011;4585;51.414;6.776;2022-08-19T11:53:59;7.38;;;4.60;;
9098;SDS011;4585;51.414;6.776;2022-08-19T11:56:26;8.68;;;4.47;;
9098;SDS011;4585;51.414;6.776;2022-08-19T11:58:53;8.43;;;4.97;;
9098;SDS011;4585;51.414;6.776;2022-08-19T12:01:22;15.48;;;6.22;;
9098;SDS011;4585;51.414;6.776;2022-08-19T12:03:53;8.10;;;5.90;;
9098;SDS011;4585;51.414;6.776;2022-08-19T12:06:21;10.95;;;5.15;;
9098;SDS011;4585;51.414;6.776;2022-08-19T12:08:55;6.40;;;5.07;;
9098;SDS011;4585;51.414;6.776;2022-08-19T12:11:22;6.05;;;4.25;;
9098;SDS011;4585;51.414;6.776;2022-08-19T12:13:48;5.95;;;4.10;;
9098;SDS011;4585;51.414;6.776;2022-08-19T12:16:19;8.65;;;4.32;;
9098;SDS011;4585;51.414;6.776;2022-08-19T12:18:48;6.65;;;5.07;;
9098;SDS011;4585;51.414;6.776;2022-08-19T12:21:16;7.15;;;4.68;;
9098;SDS011;4585;51.414;6.776;2022-08-19T12:23:48;5.88;;;4.80;;
9098;SDS011;4585;51.414;6.776;2022-08-19T12:26:20;7.68;;;5.00;;
9098;SDS011;4585;51.414;6.776;2022-08-19T12:28:49;5.97;;;5.03;;
9098;SDS011;4585;51.414;6.776;2022-08-19T12:31:15;8.25;;;4.00;;
9098;SDS011;4585;51.414;6.776;2022-08-19T12:33:42;4.57;;;3.42;;
9098;SDS011;4585;51.414;6.776;2022-08-19T12:36:12;6.50;;;4.30;;
9098;SDS011;4585;51.414;6.776;2022-08-19T12:38:39;5.55;;;3.85;;
9098;SDS011;4585;51.414;6.776;2022-08-19T12:41:06;7.20;;;3.80;;
9098;SDS011;4585;51.414;6.776;2022-08-19T12:43:35;4.88;;;3.97;;
9098;SDS011;4585;51.414;6.776;2022-08-19T12:46:08;5.93;;;4.53;;
9098;SDS011;4585;51.414;6.776;2022-08-19T12:48:36;6.70;;;3.70;;
9098;SDS011;4585;51.414;6.776;2022-08-19T12:51:08;4.85;;;3.35;;
9098;SDS011;4585;51.414;6.776;2022-08-19T12:53:35;5.57;;;3.97;;
9098;SDS011;4585;51.414;6.776;2022-08-19T12:56:04;5.88;;;3.92;;
9098;SDS011;4585;51.414;6.776;2022-08-19T12:58:31;4.00;;;3.60;;
9098;SDS011;4585;51.414;6.776;2022-08-19T13:01:00;7.20;;;3.65;;
9098;SDS011;4585;51.414;6.776;2022-08-19T13:03:33;5.90;;;4.30;;
9098;SDS011;4585;51.414;6.776;2022-08-19T13:05:59;3.88;;;3.47;;
9098;SDS011;4585;51.414;6.776;2022-08-19T13:08:31;5.50;;;3.55;;
9098;SDS011;4585;51.414;6.776;2022-08-19T13:10:57;5.22;;;3.65;;
9098;SDS011;4585;51.414;6.776;2022-08-19T13:13:34;4.15;;;3.20;;
9098;SDS011;4585;51.414;6.776;2022-08-19T13:16:00;3.25;;;2.88;;
9098;SDS011;4585;51.414;6.776;2022-08-19T13:18:29;9.55;;;3.22;;
9098;SDS011;4585;51.414;6.776;2022-08-19T13:20:55;3.90;;;2.97;;
9098;SDS011;4585;51.414;6.776;2022-08-19T13:23:21;7.07;;;3.28;;
9098;SDS011;4585;51.414;6.776;2022-08-19T13:26:00;5.50;;;3.30;;
9098;SDS011;4585;51.414;6.776;2022-08-19T13:28:30;4.43;;;3.38;;
9098;SDS011;4585;51.414;6.776;2022-08-19T13:31:17;5.53;;;3.47;;
9098;SDS011;4585;51.414;6.776;2022-08-19T13:34:05;3.97;;;3.00;;
9098;SDS011;4585;51.414;6.776;2022-08-19T13:36:35;4.78;;;2.97;;
9098;SDS011;4585;51.414;6.776;2022-08-19T13:39:05;6.13;;;3.00;;
9098;SDS011;4585;51.414;6.776;2022-08-19T13:41:33;4.18;;;3.10;;
9098;SDS011;4585;51.414;6.776;2022-08-19T13:44:00;3.58;;;3.20;;
9098;SDS011;4585;51.414;6.776;2022-08-19T13:46:26;6.20;;;3.30;;
9098;SDS011;4585;51.414;6.776;2022-08-19T13:48:54;6.32;;;3.33;;
9098;SDS011;4585;51.414;6.776;2022-08-19T13:51:21;3.97;;;2.95;;
9098;SDS011;4585;51.414;6.776;2022-08-19T13:53:47;4.50;;;3.08;;
9098;SDS011;4585;51.414;6.776;2022-08-19T13:56:17;7.90;;;3.45;;
9098;SDS011;4585;51.414;6.776;2022-08-19T13:58:49;7.28;;;3.78;;
9098;SDS011;4585;51.414;6.776;2022-08-19T14:01:19;4.38;;;3.30;;
9098;SDS011;4585;51.414;6.776;2022-08-19T14:03:47;4.72;;;3.15;;
9098;SDS011;4585;51.414;6.776;2022-08-19T14:06:13;4.60;;;3.58;;
9098;SDS011;4585;51.414;6.776;2022-08-19T14:08:39;4.80;;;3.38;;
9098;SDS011;4585;51.414;6.776;2022-08-19T14:11:09;7.22;;;3.47;;
9098;SDS011;4585;51.414;6.776;2022-08-19T14:13:35;4.88;;;3.22;;
9098;SDS011;4585;51.414;6.776;2022-08-19T14:16:06;6.95;;;3.90;;
9098;SDS011;4585;51.414;6.776;2022-08-19T14:18:39;6.10;;;4.00;;
9098;SDS011;4585;51.414;6.776;2022-08-19T14:21:08;7.38;;;4.30;;
9098;SDS011;4585;51.414;6.776;2022-08-19T14:23:45;5.95;;;3.92;;
9098;SDS011;4585;51.414;6.776;2022-08-19T14:26:15;7.55;;;3.50;;
9098;SDS011;4585;51.414;6.776;2022-08-19T14:28:45;4.32;;;3.92;;
9098;SDS011;4585;51.414;6.776;2022-08-19T14:31:11;6.00;;;3.65;;
9098;SDS011;4585;51.414;6.776;2022-08-19T14:33:41;5.75;;;3.50;;
9098;SDS011;4585;51.414;6.776;2022-08-19T14:36:08;9.20;;;4.10;;
9098;SDS011;4585;51.414;6.776;2022-08-19T14:38:33;6.03;;;4.20;;
9098;SDS011;4585;51.414;6.776;2022-08-19T14:41:19;5.75;;;3.45;;
9098;SDS011;4585;51.414;6.776;2022-08-19T14:43:48;6.53;;;4.53;;
9098;SDS011;4585;51.414;6.776;2022-08-19T14:46:20;8.05;;;3.00;;
9098;SDS011;4585;51.414;6.776;2022-08-19T14:48:47;5.32;;;3.15;;
9098;SDS011;4585;51.414;6.776;2022-08-19T14:51:14;7.93;;;4.32;;
9098;SDS011;4585;51.414;6.776;2022-08-19T14:53:43;4.63;;;3.40;;
9098;SDS011;4585;51.414;6.776;2022-08-19T14:56:10;5.75;;;2.88;;
9098;SDS011;4585;51.414;6.776;2022-08-19T14:58:37;4.05;;;2.70;;
9098;SDS011;4585;51.414;6.776;2022-08-19T15:01:06;3.45;;;2.80;;
9098;SDS011;4585;51.414;6.776;2022-08-19T15:03:32;7.53;;;3.10;;
9098;SDS011;4585;51.414;6.776;2022-08-19T15:05:59;4.32;;;3.15;;
9098;SDS011;4585;51.414;6.776;2022-08-19T15:08:27;6.00;;;3.20;;
9098;SDS011;4585;51.414;6.776;2022-08-19T15:11:03;4.82;;;3.13;;
9098;SDS011;4585;51.414;6.776;2022-08-19T15:13:39;4.15;;;2.83;;
9098;SDS011;4585;51.414;6.776;2022-08-19T15:16:06;5.13;;;3.03;;
9098;SDS011;4585;51.414;6.776;2022-08-19T15:18:35;4.03;;;2.85;;
9098;SDS011;4585;51.414;6.776;2022-08-19T15:21:01;5.10;;;3.20;;
9098;SDS011;4585;51.414;6.776;2022-08-19T15:23:28;5.07;;;3.35;;
9098;SDS011;4585;51.414;6.776;2022-08-19T15:25:54;4.68;;;3.10;;
9098;SDS011;4585;51.414;6.776;2022-08-19T15:28:23;4.63;;;2.88;;
9098;SDS011;4585;51.414;6.776;2022-08-19T15:30:50;3.78;;;2.83;;
9098;SDS011;4585;51.414;6.776;2022-08-19T15:33:17;4.68;;;2.70;;